Current | Forecast
Updated: 12:00 AM +10 on May 26, 2017
Observed at Vladivostok, China
Temperature 48°F
Humidity 93%
Dew Point 46°F
Wind North at 4 mph
Pressure 29.83 in (Steady)
Conditions Light Rain Showers
Visibility 6.2 miles
UV 0 out of 16
Clouds Mostly Cloudy (BKN) : 5000 ft
Yesterday's Maximum 52°F
Yesterday's Minimum 41°F approx.
Yesterday's Heating Degree Days 19 approx.
Sunrise3:42 AM CST
Sunset6:42 PM CST
Moon Rise3:29 AM CST
Moon Set5:49 PM CST
Moon PhaseMoon Phase
Waning Crescent
Raw METARMETAR UHWW 251400Z 35002MPS 9999 -SHRA BKN050CB 09/08 Q1010 R25L/290160 NOSIG RMK QFE756


Monday
. High: 68° F.
Tuesday
. High: 66° F.
Wednesday
. High: 68° F.
Thursday
. High: 71° F.
Friday
. High: 68° F.
Saturday
. High: 68° F.
Sunday
. High: 68° F.
Monday
. High: 68° F.

Units: English | Metric

Find the Weather for any City, State or Zipcode, or Country:

U.S. State List | Severe Weather | Tropical Storms | Ski Conditions
United States | Canada | Central America | South America | Asia | Europe | Australia | Africa | Islands

Weather Underground

© Copyright 2017
The Weather Company, LLC